Time;durP1;ratioP1;P1;durP2;ratioP2;P2;SDS_P1;SDS_P2;PMS_P1;PMS_P2;Temp;Humidity;BMP_temperature;BMP_pressure;BME280_temperature;BME280_humidity;BME280_pressure;Samples;Min_cycle;Max_cycle;Signal;HPM_P1;HPM_P2
2023/01/25 00:00:48;;;;;;;1.60;1.30;;;21.30;38.30;;;;;;5062658;27;83056;-57
2023/01/25 00:03:16;;;;;;;2.07;1.53;;;21.20;38.30;;;;;;5063928;27;82990;-57
2023/01/25 00:05:44;;;;;;;2.20;1.97;;;21.20;38.30;;;;;;5058694;27;83407;-57
2023/01/25 00:08:12;;;;;;;2.10;1.60;;;21.10;38.20;;;;;;5064961;27;83695;-57
2023/01/25 00:10:40;;;;;;;1.93;1.40;;;21.10;38.30;;;;;;5063425;27;82019;-57
2023/01/25 00:13:08;;;;;;;1.83;1.67;;;21.10;38.30;;;;;;5063903;27;82788;-57
2023/01/25 00:15:37;;;;;;;2.07;1.87;;;21.00;38.90;;;;;;5064491;27;82634;-57
2023/01/25 00:18:05;;;;;;;2.30;1.53;;;20.90;38.20;;;;;;5064883;27;84083;-57
2023/01/25 00:20:33;;;;;;;3.47;1.60;;;20.90;38.20;;;;;;5063797;27;82095;-57
2023/01/25 00:23:01;;;;;;;1.33;1.23;;;20.80;38.20;;;;;;5064131;27;82929;-56
2023/01/25 00:25:29;;;;;;;2.83;1.77;;;20.80;38.30;;;;;;5063776;27;84005;-57
2023/01/25 00:27:58;;;;;;;2.50;1.70;;;20.80;38.30;;;;;;5063966;27;82281;-57
2023/01/25 00:30:26;;;;;;;3.17;1.60;;;20.70;38.20;;;;;;5064698;27;81880;-57
2023/01/25 00:33:01;;;;;;;1.40;1.30;;;20.70;38.30;;;;;;5064039;27;83989;-57
2023/01/25 00:35:30;;;;;;;1.73;1.50;;;20.70;38.30;;;;;;5063806;27;82925;-58
2023/01/25 00:37:58;;;;;;;1.83;1.47;;;20.60;38.30;;;;;;5062861;27;83976;-58
2023/01/25 00:40:26;;;;;;;1.67;1.27;;;20.60;38.30;;;;;;5064051;27;82009;-57
2023/01/25 00:42:54;;;;;;;1.60;1.50;;;20.60;38.30;;;;;;5064938;27;83005;-56
2023/01/25 00:45:22;;;;;;;2.17;1.40;;;20.60;38.30;;;;;;5063878;27;82990;-56
2023/01/25 00:47:55;;;;;;;1.83;1.50;;;20.60;38.30;;;;;;5057955;27;83961;-57
2023/01/25 00:50:23;;;;;;;1.90;1.33;;;20.50;38.20;;;;;;5063292;27;83032;-56
2023/01/25 00:52:51;;;;;;;1.40;1.30;;;20.50;38.30;;;;;;5064219;27;82757;-57
2023/01/25 00:55:19;;;;;;;2.27;1.73;;;20.50;38.30;;;;;;5063354;27;83194;-56
2023/01/25 00:57:47;;;;;;;3.17;1.83;;;20.50;38.30;;;;;;5064509;27;81917;-57
2023/01/25 01:00:16;;;;;;;1.63;1.50;;;20.40;38.20;;;;;;5064441;27;82107;-56
2023/01/25 01:02:44;;;;;;;2.20;1.97;;;20.40;38.20;;;;;;5064638;27;82017;-56
2023/01/25 01:05:14;;;;;;;2.03;1.83;;;20.40;38.30;;;;;;5063330;27;82209;-57
2023/01/25 01:07:42;;;;;;;1.33;1.00;;;20.40;38.30;;;;;;5064072;27;83660;-57
2023/01/25 01:10:11;;;;;;;2.30;1.60;;;20.30;38.20;;;;;;5062844;27;82972;-57
2023/01/25 01:12:39;;;;;;;1.63;1.10;;;20.30;38.20;;;;;;5063524;27;82817;-56
2023/01/25 01:15:08;;;;;;;2.70;1.63;;;20.30;38.20;;;;;;5062847;27;82967;-55
2023/01/25 01:17:36;;;;;;;1.70;1.43;;;20.30;38.20;;;;;;5064094;27;83629;-57
2023/01/25 01:20:05;;;;;;;1.37;1.17;;;20.30;38.20;;;;;;5063674;27;82488;-54
2023/01/25 01:22:35;;;;;;;1.87;1.70;;;20.20;38.10;;;;;;5063018;27;85222;-57
2023/01/25 01:25:03;;;;;;;1.90;1.33;;;20.20;38.10;;;;;;5057947;27;82944;-55
2023/01/25 01:27:31;;;;;;;2.03;1.43;;;20.20;38.10;;;;;;5064125;27;82000;-55
2023/01/25 01:29:59;;;;;;;2.03;1.67;;;20.20;38.10;;;;;;5062905;27;81846;-54
2023/01/25 01:32:27;;;;;;;2.67;1.60;;;20.10;38.00;;;;;;5063987;27;82853;-55
2023/01/25 01:34:55;;;;;;;1.43;1.33;;;20.20;38.20;;;;;;5063540;27;82874;-54
2023/01/25 01:37:23;;;;;;;2.60;1.43;;;20.10;38.00;;;;;;5063548;27;82798;-54
2023/01/25 01:39:53;;;;;;;1.80;1.60;;;20.10;38.00;;;;;;5062388;27;82937;-54
2023/01/25 01:42:21;;;;;;;1.40;1.20;;;20.10;38.00;;;;;;5063507;27;83016;-55
2023/01/25 01:44:50;;;;;;;2.20;1.50;;;20.10;38.10;;;;;;5063431;27;82993;-55
2023/01/25 01:47:20;;;;;;;4.07;2.37;;;20.10;38.10;;;;;;5060782;27;82815;-55
2023/01/25 01:49:51;;;;;;;2.10;1.40;;;20.10;38.10;;;;;;5063618;27;81977;-55
2023/01/25 01:52:20;;;;;;;2.30;1.80;;;20.10;38.10;;;;;;5062483;27;82740;-55
2023/01/25 01:54:49;;;;;;;3.00;1.80;;;20.10;38.10;;;;;;5062725;27;83998;-55
2023/01/25 01:57:21;;;;;;;1.83;1.30;;;20.00;38.00;;;;;;5063676;27;83001;-55
2023/01/25 01:59:50;;;;;;;1.80;1.17;;;20.00;38.00;;;;;;5062732;27;82301;-55
2023/01/25 02:02:18;;;;;;;1.20;1.10;;;20.00;38.00;;;;;;5063440;27;85019;-55
2023/01/25 02:04:47;;;;;;;2.07;1.27;;;20.00;38.00;;;;;;5062010;27;83999;-56
2023/01/25 02:07:16;;;;;;;2.40;1.17;;;20.00;38.00;;;;;;5062365;27;83533;-55
2023/01/25 02:09:45;;;;;;;1.93;1.50;;;19.90;37.90;;;;;;5062273;27;81948;-54
2023/01/25 02:12:13;;;;;;;3.60;1.70;;;19.90;37.90;;;;;;5062767;27;82840;-54
2023/01/25 02:14:45;;;;;;;2.33;1.93;;;19.90;37.90;;;;;;5062457;27;83191;-55
2023/01/25 02:17:13;;;;;;;2.60;1.40;;;19.90;38.00;;;;;;5062940;27;83006;-55
2023/01/25 02:19:43;;;;;;;2.03;1.53;;;19.90;37.90;;;;;;5046639;27;81943;-55
2023/01/25 02:22:12;;;;;;;2.47;2.23;;;19.90;37.90;;;;;;5063324;27;82440;-55
2023/01/25 02:24:40;;;;;;;1.57;1.37;;;19.80;37.80;;;;;;5061860;27;83035;-55
2023/01/25 02:27:09;;;;;;;2.53;1.93;;;19.80;37.90;;;;;;5062042;27;83570;-55
2023/01/25 02:29:37;;;;;;;2.37;1.70;;;19.80;37.80;;;;;;5061799;27;82894;-55
2023/01/25 02:32:05;;;;;;;1.83;1.73;;;19.80;37.80;;;;;;5051833;27;82635;-55
2023/01/25 02:34:35;;;;;;;2.30;1.43;;;19.80;37.80;;;;;;5062271;27;84046;-55
2023/01/25 02:37:03;;;;;;;1.40;1.30;;;19.80;37.90;;;;;;5063212;27;83404;-55
2023/01/25 02:39:31;;;;;;;2.33;1.60;;;19.80;37.90;;;;;;5062749;27;82026;-55
2023/01/25 02:41:59;;;;;;;2.97;1.87;;;19.70;37.80;;;;;;5062623;27;82404;-55
2023/01/25 02:44:30;;;;;;;1.40;1.30;;;19.80;37.90;;;;;;5062601;27;84129;-55
2023/01/25 02:47:01;;;;;;;3.60;2.10;;;19.70;37.80;;;;;;5048617;27;82314;-54
2023/01/25 02:49:29;;;;;;;2.27;1.57;;;19.70;37.80;;;;;;5055993;27;82164;-55
2023/01/25 02:51:57;;;;;;;2.57;1.90;;;19.70;37.80;;;;;;5062664;27;83642;-55
2023/01/25 02:54:25;;;;;;;1.73;1.23;;;19.70;37.80;;;;;;5061296;27;85040;-55
2023/01/25 02:56:53;;;;;;;5.90;1.50;;;19.70;37.80;;;;;;5062109;27;83551;-55
2023/01/25 02:59:22;;;;;;;1.37;1.27;;;19.70;37.80;;;;;;5061925;27;81946;-55
2023/01/25 03:01:51;;;;;;;1.60;1.50;;;19.70;37.90;;;;;;5061364;27;83959;-55
2023/01/25 03:04:19;;;;;;;2.07;1.43;;;19.60;37.80;;;;;;5061248;27;82987;-55
2023/01/25 03:06:47;;;;;;;3.20;2.20;;;19.70;37.80;;;;;;5062432;27;82538;-54
2023/01/25 03:09:15;;;;;;;2.37;1.77;;;19.60;37.70;;;;;;5062298;27;81956;-53
2023/01/25 03:11:43;;;;;;;1.73;1.40;;;19.60;37.70;;;;;;5062190;27;82635;-55
2023/01/25 03:14:11;;;;;;;2.73;1.53;;;19.60;37.70;;;;;;5051681;27;82018;-55
2023/01/25 03:16:39;;;;;;;1.80;1.40;;;19.60;37.70;;;;;;5061803;27;83995;-55
2023/01/25 03:19:09;;;;;;;2.53;1.67;;;19.60;37.80;;;;;;5063657;27;83166;-55
2023/01/25 03:21:37;;;;;;;1.20;1.10;;;19.60;37.70;;;;;;5066012;27;82907;-55
2023/01/25 03:24:06;;;;;;;2.27;1.50;;;19.70;37.80;;;;;;5065106;27;84419;-55
2023/01/25 03:27:09;;;;;;;1.67;1.30;;;19.80;37.70;;;;;;5065257;27;82807;-55
2023/01/25 03:29:23;;;;;;;1.40;1.03;;;19.90;37.70;;;;;;5064838;27;83513;-56
2023/01/25 03:31:51;;;;;;;1.07;1.00;;;20.10;37.70;;;;;;5066160;27;81964;-55
2023/01/25 03:34:20;;;;;;;2.60;1.40;;;20.10;37.60;;;;;;5065502;27;82856;-55
2023/01/25 03:36:48;;;;;;;2.03;1.27;;;20.20;37.60;;;;;;5066110;27;84009;-55
2023/01/25 03:39:16;;;;;;;1.27;1.20;;;20.30;37.60;;;;;;5065104;27;81944;-55
2023/01/25 03:41:44;;;;;;;3.50;1.60;;;20.30;37.60;;;;;;5065313;27;82854;-55
2023/01/25 03:44:12;;;;;;;2.63;1.90;;;20.30;37.50;;;;;;5064601;27;84250;-55
2023/01/25 03:46:40;;;;;;;2.57;1.70;;;20.30;37.60;;;;;;5065621;27;82494;-55
2023/01/25 03:49:09;;;;;;;2.70;1.57;;;20.30;37.60;;;;;;5065046;27;82336;-55
2023/01/25 03:51:38;;;;;;;2.27;1.53;;;20.30;37.60;;;;;;5064306;27;82976;-55
2023/01/25 03:54:07;;;;;;;2.10;1.40;;;20.30;37.60;;;;;;5064542;27;83240;-55
2023/01/25 03:56:35;;;;;;;1.40;1.23;;;20.30;37.60;;;;;;5064588;27;82807;-55
2023/01/25 03:59:03;;;;;;;2.23;1.60;;;20.30;37.60;;;;;;5064776;27;82064;-55
2023/01/25 04:01:31;;;;;;;2.03;1.80;;;20.30;37.60;;;;;;5065790;27;83852;-55
2023/01/25 04:03:59;;;;;;;2.00;1.20;;;20.20;38.20;;;;;;5064024;27;83285;-55
2023/01/25 04:06:27;;;;;;;2.23;1.43;;;20.20;37.60;;;;;;5064623;27;83397;-55
2023/01/25 04:08:56;;;;;;;1.53;1.30;;;20.20;37.70;;;;;;5063934;27;82849;-55
2023/01/25 04:11:24;;;;;;;1.33;1.20;;;20.10;37.60;;;;;;5064637;27;83928;-55
2023/01/25 04:13:52;;;;;;;1.13;1.03;;;20.10;37.60;;;;;;5064394;27;84374;-55
2023/01/25 04:16:20;;;;;;;1.43;1.33;;;20.10;37.70;;;;;;5063502;27;83939;-55
2023/01/25 04:18:48;;;;;;;1.10;0.83;;;20.00;37.60;;;;;;5064683;27;81934;-54
2023/01/25 04:21:16;;;;;;;1.37;1.00;;;20.00;37.60;;;;;;5064398;27;83966;-55
2023/01/25 04:23:44;;;;;;;2.30;1.37;;;20.00;37.70;;;;;;5064502;27;83021;-55
2023/01/25 04:26:14;;;;;;;2.30;1.77;;;20.00;37.70;;;;;;5065412;27;82770;-55
2023/01/25 04:28:42;;;;;;;1.83;1.47;;;19.90;37.60;;;;;;5063946;27;82722;-55
2023/01/25 04:31:10;;;;;;;2.70;1.17;;;19.90;37.60;;;;;;5064178;27;82946;-55
2023/01/25 04:33:38;;;;;;;1.80;1.50;;;19.90;37.60;;;;;;5063325;27;83939;-55
2023/01/25 04:36:06;;;;;;;1.60;1.33;;;19.90;38.30;;;;;;5064839;27;82536;-55
2023/01/25 04:38:34;;;;;;;1.73;1.50;;;19.90;37.70;;;;;;5062713;27;82000;-55
2023/01/25 04:41:04;;;;;;;1.50;1.40;;;19.80;37.60;;;;;;5064675;27;82047;-55
2023/01/25 04:43:33;;;;;;;2.40;1.73;;;19.80;37.60;;;;;;5063494;27;83216;-55
2023/01/25 04:46:01;;;;;;;2.27;1.47;;;19.80;37.60;;;;;;5063823;27;82652;-54
2023/01/25 04:48:29;;;;;;;1.33;1.23;;;19.80;37.60;;;;;;5063630;27;82608;-55
2023/01/25 04:50:57;;;;;;;2.17;1.33;;;19.70;37.60;;;;;;5064882;27;82832;-55
2023/01/25 04:53:25;;;;;;;1.63;1.17;;;19.70;37.60;;;;;;5064531;27;84572;-55
2023/01/25 04:55:53;;;;;;;1.30;1.10;;;19.70;37.60;;;;;;5063630;27;82799;-54
2023/01/25 04:58:21;;;;;;;1.43;1.10;;;19.70;37.60;;;;;;5064147;27;83986;-54
2023/01/25 05:00:51;;;;;;;2.70;1.50;;;19.70;38.40;;;;;;5064476;27;84239;-54
2023/01/25 05:03:19;;;;;;;1.10;1.00;;;19.70;37.80;;;;;;5064014;27;83187;-55
2023/01/25 05:05:47;;;;;;;1.53;1.43;;;19.70;37.90;;;;;;5064292;27;82662;-55
2023/01/25 05:08:15;;;;;;;3.23;1.40;;;19.70;37.90;;;;;;5064161;27;82196;-54
2023/01/25 05:10:44;;;;;;;1.97;1.67;;;19.70;38.00;;;;;;5063757;27;82720;-53
2023/01/25 05:13:12;;;;;;;1.50;1.20;;;19.70;38.00;;;;;;5063160;27;83211;-53
2023/01/25 05:15:40;;;;;;;1.40;1.10;;;19.80;38.20;;;;;;5061942;27;82784;-52
2023/01/25 05:18:09;;;;;;;2.87;1.57;;;19.80;38.30;;;;;;5061944;27;82256;-54
2023/01/25 05:20:37;;;;;;;1.47;1.30;;;19.70;38.30;;;;;;5062745;27;82780;-53
2023/01/25 05:23:05;;;;;;;1.87;1.40;;;19.70;38.30;;;;;;5060952;27;85053;-54
2023/01/25 05:28:18;;;;;;;1.30;1.20;;;19.70;38.50;;;;;;5063804;27;81999;-55
2023/01/25 05:30:46;;;;;;;1.90;1.37;;;19.70;38.70;;;;;;5063509;27;82893;-54
2023/01/25 05:33:16;;;;;;;1.40;1.30;;;19.70;38.80;;;;;;5062858;27;84049;-54
2023/01/25 05:35:44;;;;;;;4.27;1.63;;;19.70;38.90;;;;;;5063727;27;81987;-55
2023/01/25 05:38:12;;;;;;;1.67;1.57;;;19.70;38.90;;;;;;5063673;27;81999;-56
2023/01/25 05:40:40;;;;;;;3.33;1.70;;;19.70;39.00;;;;;;5063130;27;82873;-56
2023/01/25 05:43:08;;;;;;;2.87;2.10;;;19.70;39.00;;;;;;5063328;27;83978;-54
2023/01/25 05:45:36;;;;;;;3.33;1.60;;;19.70;39.10;;;;;;5063419;27;84079;-55
2023/01/25 05:48:05;;;;;;;1.93;1.53;;;19.70;39.10;;;;;;5062079;27;82861;-55
2023/01/25 05:50:34;;;;;;;2.30;1.67;;;19.70;39.10;;;;;;5063914;27;82717;-55
2023/01/25 05:53:02;;;;;;;1.83;1.50;;;19.70;39.10;;;;;;5063817;27;82760;-55
2023/01/25 05:55:30;;;;;;;2.57;1.60;;;19.60;39.70;;;;;;5064499;27;82621;-55
2023/01/25 05:57:58;;;;;;;2.67;1.70;;;19.70;39.20;;;;;;5063661;27;81895;-55
2023/01/25 06:00:26;;;;;;;2.43;2.10;;;19.60;39.10;;;;;;5062821;27;82948;-55
2023/01/25 06:02:55;;;;;;;9.37;2.13;;;19.70;39.20;;;;;;5063197;27;83091;-55
2023/01/25 06:05:23;;;;;;;2.17;1.80;;;19.70;39.10;;;;;;5063106;27;83035;-55
2023/01/25 06:07:53;;;;;;;2.50;1.20;;;19.80;39.20;;;;;;5046358;27;82000;-55
2023/01/25 06:10:21;;;;;;;2.57;1.93;;;19.90;39.10;;;;;;5043039;28;83894;-55
2023/01/25 06:12:49;;;;;;;4.07;1.93;;;20.10;39.20;;;;;;5042514;27;85076;-55
2023/01/25 06:15:17;;;;;;;1.93;1.50;;;20.20;39.70;;;;;;5043198;27;83892;-55
2023/01/25 06:17:45;;;;;;;1.50;1.40;;;20.30;39.00;;;;;;5043291;27;81957;-55
2023/01/25 06:20:13;;;;;;;1.60;1.27;;;20.40;39.00;;;;;;5043105;28;83897;-55
2023/01/25 06:22:41;;;;;;;2.37;1.90;;;20.50;39.00;;;;;;5042690;28;81965;-55
2023/01/25 06:25:11;;;;;;;1.43;1.20;;;20.50;39.00;;;;;;5042682;27;82960;-55
2023/01/25 06:27:39;;;;;;;1.93;1.33;;;20.60;39.10;;;;;;5043029;27;82088;-55
2023/01/25 06:30:08;;;;;;;2.60;1.47;;;20.60;39.00;;;;;;5043075;28;84011;-55
2023/01/25 06:32:37;;;;;;;2.13;1.67;;;20.60;39.00;;;;;;5042826;27;83151;-55
2023/01/25 06:35:05;;;;;;;5.47;1.60;;;20.60;39.00;;;;;;5061631;27;82553;-54
2023/01/25 06:37:33;;;;;;;2.37;1.77;;;20.60;39.00;;;;;;5062511;27;82967;-55
2023/01/25 06:40:02;;;;;;;2.70;1.87;;;20.60;39.10;;;;;;5062582;27;82850;-55
2023/01/25 06:42:31;;;;;;;2.70;1.33;;;20.60;39.10;;;;;;5063169;27;82993;-54
2023/01/25 06:44:59;;;;;;;3.83;1.80;;;20.50;39.00;;;;;;5063099;27;82654;-55
2023/01/25 06:47:27;;;;;;;3.13;1.97;;;20.50;39.00;;;;;;5062842;27;82025;-55
2023/01/25 06:49:55;;;;;;;4.70;1.57;;;20.50;39.00;;;;;;5063012;27;82651;-55
2023/01/25 06:52:23;;;;;;;2.10;1.90;;;20.40;38.90;;;;;;5064078;27;82767;-55
2023/01/25 06:54:51;;;;;;;2.93;1.63;;;20.40;39.00;;;;;;5066708;27;83994;-55
2023/01/25 06:57:19;;;;;;;3.03;1.43;;;20.30;38.90;;;;;;5066640;27;81927;-57
2023/01/25 06:59:49;;;;;;;2.17;1.83;;;20.30;38.90;;;;;;5066274;27;82010;-54
2023/01/25 07:02:17;;;;;;;1.70;1.60;;;20.30;39.00;;;;;;5065721;27;84040;-55
2023/01/25 07:04:45;;;;;;;2.87;2.10;;;20.20;38.90;;;;;;5066360;27;83651;-55
2023/01/25 07:07:13;;;;;;;2.53;1.70;;;20.20;39.50;;;;;;5066102;27;82074;-55
2023/01/25 07:09:41;;;;;;;2.23;1.53;;;20.20;38.90;;;;;;5065631;27;85470;-54
2023/01/25 07:12:09;;;;;;;2.53;1.80;;;20.10;38.90;;;;;;5066421;27;83241;-55
2023/01/25 07:14:37;;;;;;;1.80;1.40;;;20.10;38.90;;;;;;5066218;27;81940;-55
2023/01/25 07:17:06;;;;;;;2.80;1.77;;;20.00;38.80;;;;;;5065488;27;81862;-55
2023/01/25 07:19:35;;;;;;;2.17;1.73;;;20.00;38.30;;;;;;5066132;27;82996;-55
2023/01/25 07:22:03;;;;;;;3.57;1.63;;;20.00;39.50;;;;;;5066097;27;83072;-55
2023/01/25 07:24:31;;;;;;;1.57;1.23;;;20.00;38.80;;;;;;5065753;27;82022;-55
2023/01/25 07:26:59;;;;;;;2.70;2.10;;;20.00;38.80;;;;;;5065634;27;82796;-55
2023/01/25 07:29:27;;;;;;;3.57;2.03;;;19.90;38.80;;;;;;5065844;27;82858;-57
2023/01/25 07:31:55;;;;;;;1.47;1.30;;;19.90;38.80;;;;;;5065573;27;82985;-55
2023/01/25 07:34:24;;;;;;;2.70;1.70;;;19.90;38.80;;;;;;5065458;27;82867;-55
2023/01/25 07:36:52;;;;;;;2.40;1.87;;;19.90;38.80;;;;;;5065839;27;82003;-55
2023/01/25 07:39:21;;;;;;;2.13;1.60;;;19.90;38.80;;;;;;5065128;27;82661;-55
2023/01/25 07:41:49;;;;;;;2.20;1.50;;;19.80;38.70;;;;;;5066015;27;82887;-54
2023/01/25 07:44:17;;;;;;;3.23;1.90;;;19.80;38.70;;;;;;5066117;27;82861;-55
2023/01/25 07:46:45;;;;;;;2.40;1.80;;;19.80;38.70;;;;;;5066446;27;82590;-56
2023/01/25 07:49:13;;;;;;;2.73;1.90;;;19.70;38.70;;;;;;5065528;27;82809;-55
2023/01/25 07:51:43;;;;;;;2.50;1.47;;;19.70;38.70;;;;;;5065289;27;84149;-55
2023/01/25 07:54:11;;;;;;;2.60;1.70;;;19.70;38.70;;;;;;5065466;27;84866;-55
2023/01/25 07:56:39;;;;;;;3.50;2.00;;;19.70;38.60;;;;;;5065332;27;82056;-55
2023/01/25 07:59:08;;;;;;;4.17;2.50;;;19.70;38.60;;;;;;5064907;27;82096;-55
2023/01/25 08:01:36;;;;;;;2.77;1.77;;;19.70;38.60;;;;;;5064825;27;83146;-54
2023/01/25 08:04:04;;;;;;;3.73;1.97;;;19.70;38.60;;;;;;5064700;27;82725;-55
2023/01/25 08:06:34;;;;;;;2.40;2.13;;;19.70;38.60;;;;;;5063831;27;82030;-55
2023/01/25 08:09:05;;;;;;;1.87;1.70;;;19.70;38.60;;;;;;5064211;27;82798;-55
2023/01/25 08:11:33;;;;;;;2.93;2.00;;;19.70;38.60;;;;;;5064132;27;83469;-55
2023/01/25 08:14:02;;;;;;;2.60;1.93;;;19.70;38.50;;;;;;5064836;27;82660;-55
2023/01/25 08:16:30;;;;;;;2.53;2.07;;;19.70;38.50;;;;;;5064549;27;84219;-55
2023/01/25 08:18:59;;;;;;;2.47;1.83;;;19.80;38.50;;;;;;5064580;27;82851;-55
2023/01/25 08:21:29;;;;;;;4.33;2.03;;;20.00;38.50;;;;;;5064506;27;83018;-55
2023/01/25 08:23:58;;;;;;;1.90;1.80;;;20.10;38.40;;;;;;5064511;27;83805;-55
2023/01/25 08:26:27;;;;;;;3.07;1.57;;;20.30;38.40;;;;;;5065363;27;82072;-55
2023/01/25 08:28:55;;;;;;;3.03;1.60;;;20.40;38.40;;;;;;5064215;27;82750;-55
2023/01/25 08:31:24;;;;;;;1.50;1.40;;;20.50;38.30;;;;;;5064634;27;84165;-55
2023/01/25 08:33:52;;;;;;;1.80;1.37;;;20.70;38.30;;;;;;5065026;27;82959;-55
2023/01/25 08:36:22;;;;;;;1.83;1.67;;;20.80;38.20;;;;;;5065626;27;81887;-55
2023/01/25 08:38:54;;;;;;;1.87;1.47;;;21.00;38.20;;;;;;5064285;27;83781;-55
2023/01/25 08:41:22;;;;;;;1.67;1.57;;;21.10;38.10;;;;;;5064263;27;84948;-55
2023/01/25 08:43:52;;;;;;;3.30;1.90;;;21.30;38.00;;;;;;5064581;27;82454;-55
2023/01/25 08:46:20;;;;;;;2.40;1.87;;;21.50;37.90;;;;;;5064635;27;82040;-54
2023/01/25 08:48:48;;;;;;;2.57;1.73;;;21.60;37.80;;;;;;5063359;27;81932;-55
2023/01/25 08:51:16;;;;;;;1.73;1.63;;;21.80;37.70;;;;;;5064580;27;83615;-55
2023/01/25 08:53:44;;;;;;;2.77;1.97;;;22.00;37.70;;;;;;5064446;27;82040;-54
2023/01/25 08:56:13;;;;;;;2.87;1.80;;;22.10;37.50;;;;;;5064154;27;82080;-55
2023/01/25 08:58:42;;;;;;;3.07;1.70;;;22.20;37.50;;;;;;5064333;27;82856;-55
2023/01/25 09:01:12;;;;;;;3.20;2.00;;;22.20;37.50;;;;;;5063670;27;82524;-55
2023/01/25 09:03:42;;;;;;;2.43;1.57;;;22.20;37.40;;;;;;5063985;27;82461;-54
2023/01/25 09:06:11;;;;;;;3.27;1.80;;;22.20;37.40;;;;;;5062977;27;83001;-55
2023/01/25 09:08:39;;;;;;;2.10;1.60;;;22.20;37.40;;;;;;5043204;27;82662;-53
2023/01/25 09:11:08;;;;;;;3.20;2.00;;;22.10;37.40;;;;;;5060074;27;82609;-55
2023/01/25 09:13:36;;;;;;;1.60;1.50;;;22.10;37.40;;;;;;5064016;27;84014;-55
2023/01/25 09:16:05;;;;;;;3.07;1.30;;;22.00;37.40;;;;;;5063047;27;82046;-55
2023/01/25 09:18:36;;;;;;;2.50;2.10;;;22.00;37.40;;;;;;5063820;27;82818;-55
2023/01/25 09:21:06;;;;;;;4.60;1.73;;;21.90;37.40;;;;;;5063670;27;82894;-55
2023/01/25 09:23:34;;;;;;;1.70;1.23;;;21.80;37.40;;;;;;5064262;27;82629;-56
2023/01/25 09:26:18;;;;;;;2.07;1.50;;;21.80;37.40;;;;;;5063391;27;81996;-55
2023/01/25 09:28:47;;;;;;;1.60;1.10;;;21.70;37.40;;;;;;5063379;27;84104;-55
2023/01/25 09:31:15;;;;;;;2.13;1.40;;;21.70;37.50;;;;;;5062649;27;84215;-55
2023/01/25 09:33:51;;;;;;;3.70;2.13;;;21.60;37.50;;;;;;5063644;27;83605;-55
2023/01/25 09:36:20;;;;;;;1.77;1.50;;;21.60;37.50;;;;;;5063853;27;82035;-55
2023/01/25 09:38:48;;;;;;;2.43;1.90;;;21.50;37.50;;;;;;5051105;27;82367;-55
2023/01/25 09:41:26;;;;;;;2.00;1.33;;;21.50;37.50;;;;;;5062645;27;84112;-55
2023/01/25 09:44:02;;;;;;;2.27;1.53;;;21.40;37.60;;;;;;5063428;27;83886;-55
2023/01/25 09:46:42;;;;;;;3.20;2.00;;;21.40;37.60;;;;;;5063305;27;81906;-55
2023/01/25 09:49:28;;;;;;;2.17;1.90;;;21.40;37.60;;;;;;5064140;27;81660;-55
2023/01/25 09:52:09;;;;;;;1.33;1.23;;;21.40;37.60;;;;;;5063919;27;81964;-55
2023/01/25 09:54:38;;;;;;;3.33;1.73;;;21.40;37.60;;;;;;5062666;27;84193;-55
2023/01/25 09:57:15;;;;;;;3.67;1.40;;;21.50;37.50;;;;;;5062841;27;82948;-55
2023/01/25 09:59:44;;;;;;;4.37;1.77;;;21.60;37.50;;;;;;5060996;27;82778;-55
2023/01/25 10:02:22;;;;;;;5.30;1.97;;;21.80;37.50;;;;;;5043378;27;83216;-55
2023/01/25 10:04:51;;;;;;;3.07;2.27;;;22.00;37.50;;;;;;5061945;27;82619;-56
2023/01/25 10:07:22;;;;;;;2.23;1.73;;;22.10;36.70;;;;;;5063587;27;81953;-55
2023/01/25 10:09:53;;;;;;;2.87;1.63;;;22.30;37.20;;;;;;5062726;27;82832;-55
2023/01/25 10:12:22;;;;;;;2.47;1.73;;;22.50;37.20;;;;;;5063330;27;83962;-55
2023/01/25 10:14:50;;;;;;;1.93;1.40;;;22.70;37.20;;;;;;5063509;27;82979;-56
2023/01/25 10:17:23;;;;;;;2.20;2.00;;;22.80;37.00;;;;;;5064287;27;82015;-53
2023/01/25 10:20:03;;;;;;;2.40;1.90;;;22.90;37.00;;;;;;5062987;27;81958;-55
2023/01/25 10:22:34;;;;;;;2.73;2.17;;;23.10;37.00;;;;;;5062419;27;84091;-55
2023/01/25 10:25:13;;;;;;;1.87;1.60;;;23.20;36.90;;;;;;5062387;27;84841;-54
2023/01/25 10:27:44;;;;;;;2.90;1.80;;;23.30;36.80;;;;;;5066657;27;81874;-54
2023/01/25 10:30:23;;;;;;;5.27;2.83;;;23.50;36.80;;;;;;5066650;27;82974;-55
2023/01/25 10:32:51;;;;;;;2.90;1.90;;;23.50;36.70;;;;;;5066593;27;85799;-55
2023/01/25 10:35:28;;;;;;;3.43;1.90;;;23.70;36.70;;;;;;5066563;27;82937;-55
2023/01/25 10:38:07;;;;;;;3.13;2.00;;;23.80;36.70;;;;;;5066405;27;82025;-55
2023/01/25 10:40:39;;;;;;;5.30;2.30;;;23.90;36.60;;;;;;5066553;27;82741;-56
2023/01/25 10:43:12;;;;;;;3.30;1.93;;;23.90;36.50;;;;;;5066645;27;84165;-55
2023/01/25 10:45:41;;;;;;;2.00;1.53;;;24.00;37.10;;;;;;5066378;27;82006;-55
2023/01/25 10:48:13;;;;;;;3.40;2.67;;;24.10;36.40;;;;;;5065852;27;82829;-55
2023/01/25 10:50:47;;;;;;;2.17;1.77;;;24.20;36.40;;;;;;5066427;27;82931;-55
2023/01/25 10:53:27;;;;;;;3.03;1.77;;;24.20;36.30;;;;;;5066512;27;82875;-55
2023/01/25 10:56:07;;;;;;;4.63;2.60;;;24.30;36.30;;;;;;5066037;27;82906;-55
2023/01/25 10:58:36;;;;;;;4.10;2.07;;;24.40;36.20;;;;;;5065624;27;82688;-56
2023/01/25 11:01:05;;;;;;;1.87;1.47;;;24.50;36.90;;;;;;5064732;27;82933;-55
2023/01/25 11:03:35;;;;;;;3.00;1.60;;;24.50;36.10;;;;;;5065339;27;83120;-55
2023/01/25 11:06:05;;;;;;;3.87;2.10;;;24.60;36.10;;;;;;5065450;27;82569;-55
2023/01/25 11:08:34;;;;;;;2.30;1.73;;;24.70;36.10;;;;;;5066099;27;82014;-55
2023/01/25 11:11:14;;;;;;;2.60;1.83;;;24.70;36.00;;;;;;5065412;27;82735;-55
2023/01/25 11:13:42;;;;;;;3.27;2.40;;;24.80;36.00;;;;;;5053066;27;83862;-55
2023/01/25 11:16:20;;;;;;;4.40;2.27;;;24.90;35.90;;;;;;5066175;27;82257;-56
2023/01/25 11:18:53;;;;;;;3.50;2.27;;;24.90;35.80;;;;;;5066202;27;81985;-56
2023/01/25 11:21:24;;;;;;;3.20;2.07;;;25.00;35.90;;;;;;5065574;27;82802;-55
2023/01/25 11:24:15;;;;;;;2.70;2.07;;;25.10;35.80;;;;;;5065685;27;84111;-55
2023/01/25 11:26:43;;;;;;;3.43;2.30;;;25.10;35.80;;;;;;5065152;27;82679;-55
2023/01/25 11:29:14;;;;;;;3.63;1.93;;;25.20;35.70;;;;;;5065028;27;82737;-55
2023/01/25 11:31:45;;;;;;;2.53;2.03;;;25.20;35.60;;;;;;5065682;27;83945;-55
2023/01/25 11:34:14;;;;;;;2.30;1.63;;;25.30;35.60;;;;;;5060683;27;82787;-56
2023/01/25 11:36:58;;;;;;;4.00;2.23;;;25.30;35.50;;;;;;5065257;27;81994;-55
2023/01/25 11:39:34;;;;;;;2.40;1.67;;;25.40;35.60;;;;;;5064143;27;82970;-56
2023/01/25 11:42:08;;;;;;;2.73;2.27;;;25.40;35.40;;;;;;5065520;27;84130;-55
2023/01/25 11:45:30;;;;;;;2.63;1.90;;;25.50;35.40;;;;;;5065705;27;83079;-55
2023/01/25 11:48:10;;;;;;;3.27;2.27;;;25.60;35.40;;;;;;4948696;28;82126;-55
2023/01/25 11:50:41;;;;;;;2.73;1.80;;;25.60;35.30;;;;;;5058308;27;82281;-55
2023/01/25 11:53:33;;;;;;;2.47;2.23;;;25.70;35.30;;;;;;5065142;27;82826;-55
2023/01/25 11:56:05;;;;;;;2.90;1.90;;;25.70;35.20;;;;;;5064050;27;83174;-55
2023/01/25 11:58:43;;;;;;;2.57;1.90;;;25.80;35.20;;;;;;5065517;27;83894;-55
2023/01/25 12:01:15;;;;;;;2.07;1.40;;;25.90;35.20;;;;;;5064341;27;82101;-56
2023/01/25 12:03:59;;;;;;;2.73;1.70;;;25.90;35.10;;;;;;5065279;27;83839;-56
2023/01/25 12:06:30;;;;;;;2.93;1.87;;;25.90;35.00;;;;;;5064691;27;83813;-55
2023/01/25 12:09:10;;;;;;;2.50;1.90;;;26.00;35.10;;;;;;5065054;27;83677;-55
2023/01/25 12:11:46;;;;;;;2.97;1.70;;;26.00;35.00;;;;;;5065016;27;82021;-55
2023/01/25 12:14:19;;;;;;;2.07;1.47;;;26.10;35.00;;;;;;5065204;27;81992;-55
2023/01/25 12:16:56;;;;;;;2.50;1.60;;;26.10;34.90;;;;;;5064161;27;82860;-55
2023/01/25 12:19:30;;;;;;;3.60;1.63;;;26.20;34.90;;;;;;5064994;27;83930;-55
2023/01/25 12:22:07;;;;;;;3.80;2.07;;;26.20;34.80;;;;;;5065612;27;82481;-56
2023/01/25 12:24:43;;;;;;;2.33;2.10;;;26.30;34.80;;;;;;5065555;27;82696;-55
2023/01/25 12:27:18;;;;;;;3.37;2.20;;;26.30;34.80;;;;;;5065161;27;83070;-56
2023/01/25 12:29:48;;;;;;;2.37;1.73;;;26.20;34.70;;;;;;5064749;27;84195;-55
2023/01/25 12:32:18;;;;;;;3.47;2.10;;;26.20;34.70;;;;;;5064534;27;83373;-55
2023/01/25 12:34:48;;;;;;;1.87;1.50;;;26.20;34.70;;;;;;5065134;27;82716;-55
2023/01/25 12:37:18;;;;;;;3.23;1.93;;;26.10;34.70;;;;;;5065592;27;83775;-55
2023/01/25 12:39:48;;;;;;;2.77;2.20;;;26.00;34.70;;;;;;5064836;27;82750;-55
2023/01/25 12:42:18;;;;;;;3.00;1.80;;;26.10;34.80;;;;;;5064880;27;81984;-55
2023/01/25 12:44:48;;;;;;;3.83;2.30;;;26.10;34.70;;;;;;5064558;27;82815;-55
2023/01/25 12:47:20;;;;;;;2.97;1.93;;;26.10;34.70;;;;;;5064587;27;83346;-56
2023/01/25 12:49:50;;;;;;;2.67;1.77;;;26.20;34.60;;;;;;5064290;27;82671;-55
2023/01/25 12:52:20;;;;;;;3.03;1.67;;;26.30;34.60;;;;;;5064832;27;81958;-55
2023/01/25 12:54:50;;;;;;;1.97;1.67;;;26.30;34.60;;;;;;5064363;27;82941;-55
2023/01/25 12:57:22;;;;;;;2.67;1.90;;;26.40;34.50;;;;;;5063710;27;84261;-55
2023/01/25 12:59:54;;;;;;;4.07;1.67;;;26.50;34.40;;;;;;5063968;27;83544;-56
2023/01/25 13:02:30;;;;;;;4.30;1.80;;;26.50;34.30;;;;;;5064015;27;82092;-56
2023/01/25 13:05:01;;;;;;;2.17;1.60;;;26.60;34.30;;;;;;5064070;27;82626;-56